Time;durP1;ratioP1;P1;durP2;ratioP2;P2;SDS_P1;SDS_P2;PMS_P1;PMS_P2;Temp;Humidity;BMP_temperature;BMP_pressure;BME280_temperature;BME280_humidity;BME280_pressure;Samples;Min_cycle;Max_cycle;Signal;HPM_P1;HPM_P2
2022/05/16 00:02:19;;;;;;;2.83;1.50;;;11.70;99.90;;;;;;7367261;19;20344;-73
2022/05/16 00:04:45;;;;;;;1.75;1.40;;;11.70;99.90;;;;;;7367993;19;20333;-74
2022/05/16 00:07:11;;;;;;;1.90;1.70;;;11.60;99.90;;;;;;7370301;19;20772;-74
2022/05/16 00:09:36;;;;;;;2.50;1.58;;;11.60;99.90;;;;;;7369556;19;20439;-73
2022/05/16 00:12:03;;;;;;;1.40;1.30;;;11.50;99.90;;;;;;7361330;19;20325;-74
2022/05/16 00:14:28;;;;;;;1.40;1.30;;;11.50;99.90;;;;;;7365438;19;20855;-73
2022/05/16 00:16:54;;;;;;;2.67;1.47;;;11.40;99.90;;;;;;7367199;19;20304;-74
2022/05/16 00:19:20;;;;;;;1.90;1.70;;;11.30;99.90;;;;;;7370475;19;20360;-73
2022/05/16 00:21:45;;;;;;;1.58;1.48;;;11.30;99.90;;;;;;7364187;19;20329;-74
2022/05/16 00:24:11;;;;;;;1.73;1.43;;;11.30;99.90;;;;;;7369720;19;20332;-74
2022/05/16 00:26:36;;;;;;;1.65;1.50;;;11.30;99.90;;;;;;7370121;19;20345;-74
2022/05/16 00:29:02;;;;;;;2.77;1.67;;;11.20;99.90;;;;;;7373799;19;21268;-73
2022/05/16 00:31:27;;;;;;;1.63;1.43;;;11.20;99.90;;;;;;7366425;19;20359;-73
2022/05/16 00:33:53;;;;;;;2.10;1.77;;;11.20;99.90;;;;;;7369112;19;20380;-73
2022/05/16 00:36:18;;;;;;;2.73;1.90;;;11.20;99.90;;;;;;7368424;19;20433;-74
2022/05/16 00:38:44;;;;;;;2.00;1.60;;;11.20;99.90;;;;;;7372991;19;20356;-73
2022/05/16 00:41:10;;;;;;;2.17;1.60;;;11.10;99.90;;;;;;7366315;19;20329;-74
2022/05/16 00:43:58;;;;;;;1.70;1.60;;;11.10;99.90;;;;;;7367124;19;20612;-73
2022/05/16 00:46:26;;;;;;;2.45;1.85;;;11.10;99.90;;;;;;7267370;19;2004274;-74
2022/05/16 00:48:52;;;;;;;2.20;2.00;;;11.00;99.90;;;;;;7373956;19;20358;-73
2022/05/16 00:51:23;;;;;;;2.57;1.90;;;11.00;99.90;;;;;;7365622;19;20344;-73
2022/05/16 00:53:54;;;;;;;2.92;2.10;;;11.00;99.90;;;;;;7367663;19;20366;-73
2022/05/16 00:56:20;;;;;;;1.63;1.52;;;11.00;99.90;;;;;;7367825;19;20715;-74
2022/05/16 00:58:46;;;;;;;2.75;1.50;;;11.00;99.90;;;;;;7373036;19;20852;-73
2022/05/16 01:06:40;;;;;;;2.05;1.73;;;11.00;99.90;;;;;;7369667;19;20301;-74
2022/05/16 01:09:06;;;;;;;1.60;1.50;;;11.00;99.90;;;;;;7373045;19;20325;-72
2022/05/16 01:11:31;;;;;;;3.93;1.93;;;11.10;99.90;;;;;;7365578;19;20324;-75
2022/05/16 01:13:58;;;;;;;1.70;1.60;;;11.00;99.90;;;;;;7367595;19;20687;-75
2022/05/16 01:16:24;;;;;;;2.90;1.60;;;11.00;99.90;;;;;;7368161;19;20340;-74
2022/05/16 01:18:49;;;;;;;1.63;1.52;;;11.00;99.90;;;;;;7378405;19;20324;-73
2022/05/16 01:21:38;;;;;;;2.00;1.90;;;11.00;99.90;;;;;;7369350;19;20359;-73
2022/05/16 01:24:13;;;;;;;2.00;1.80;;;11.00;99.90;;;;;;7373944;19;20334;-74
2022/05/16 01:26:38;;;;;;;2.00;1.80;;;10.90;99.90;;;;;;7375705;19;21138;-74
2022/05/16 01:29:05;;;;;;;3.60;1.88;;;10.90;99.90;;;;;;7378956;19;20321;-74
2022/05/16 01:31:30;;;;;;;2.65;2.03;;;10.90;99.90;;;;;;7370409;19;20327;-74
2022/05/16 01:33:56;;;;;;;3.53;2.80;;;10.90;99.90;;;;;;7373339;19;20328;-73
2022/05/16 01:36:22;;;;;;;3.92;2.70;;;10.90;99.90;;;;;;7374857;19;20427;-75
2022/05/16 01:38:47;;;;;;;3.60;2.40;;;10.80;99.90;;;;;;7380578;19;20324;-74
2022/05/16 01:41:15;;;;;;;2.90;2.40;;;10.80;99.90;;;;;;7372747;19;20332;-73
2022/05/16 01:43:42;;;;;;;2.70;1.80;;;10.80;99.90;;;;;;7374673;19;20328;-73
2022/05/16 01:46:08;;;;;;;1.83;1.65;;;10.80;99.90;;;;;;7374356;19;20424;-74
2022/05/16 01:48:34;;;;;;;3.35;1.85;;;10.70;99.90;;;;;;7379629;19;20336;-74
2022/05/16 01:51:04;;;;;;;2.70;1.90;;;10.70;99.90;;;;;;7373588;19;20331;-74
2022/05/16 01:53:30;;;;;;;2.03;1.83;;;10.70;99.90;;;;;;7273152;19;2004505;-74
2022/05/16 01:55:56;;;;;;;2.20;2.00;;;10.60;99.90;;;;;;7372982;19;20327;-74
2022/05/16 01:58:22;;;;;;;2.97;1.80;;;10.50;99.90;;;;;;7369115;19;20743;-74
2022/05/16 02:00:47;;;;;;;1.80;1.53;;;10.40;99.90;;;;;;7365088;19;20328;-74
2022/05/16 02:03:13;;;;;;;3.75;2.17;;;10.40;99.90;;;;;;7373574;19;20359;-74
2022/05/16 02:05:41;;;;;;;2.50;1.87;;;10.30;99.90;;;;;;7373795;19;20316;-73
2022/05/16 02:08:07;;;;;;;1.80;1.70;;;10.20;99.90;;;;;;7377363;19;20330;-74
2022/05/16 02:10:33;;;;;;;2.05;1.88;;;10.20;99.90;;;;;;7374494;19;20340;-73
2022/05/16 02:12:59;;;;;;;2.10;1.90;;;10.10;99.90;;;;;;7371787;19;20308;-74
2022/05/16 02:15:26;;;;;;;2.20;1.93;;;10.10;99.90;;;;;;7372117;19;20340;-73
2022/05/16 02:17:51;;;;;;;1.92;1.80;;;10.10;99.90;;;;;;7375916;19;20842;-74
2022/05/16 02:20:17;;;;;;;2.10;1.90;;;10.10;99.90;;;;;;7374516;19;20359;-72
2022/05/16 02:25:27;;;;;;;3.33;2.08;;;10.00;99.90;;;;;;7374077;19;20325;-73
2022/05/16 02:27:53;;;;;;;2.10;1.90;;;9.90;99.90;;;;;;7376762;19;20403;-73
2022/05/16 02:30:20;;;;;;;2.20;1.88;;;9.80;99.90;;;;;;7372383;19;20340;-73
2022/05/16 02:32:46;;;;;;;2.00;1.80;;;9.80;99.90;;;;;;7371175;19;20327;-74
2022/05/16 02:35:11;;;;;;;2.70;2.10;;;9.80;99.90;;;;;;7372814;19;20345;-73
2022/05/16 02:37:37;;;;;;;2.50;2.00;;;9.80;99.90;;;;;;7375576;19;20331;-73
2022/05/16 02:40:04;;;;;;;2.47;1.67;;;9.80;99.90;;;;;;7373227;19;20308;-73
2022/05/16 02:42:30;;;;;;;2.58;2.13;;;9.70;99.90;;;;;;7370859;19;20873;-72
2022/05/16 02:44:56;;;;;;;2.30;1.92;;;9.70;99.90;;;;;;7371801;19;20663;-72
2022/05/16 02:47:22;;;;;;;2.10;1.90;;;9.60;99.90;;;;;;7375399;19;20352;-72
2022/05/16 02:49:47;;;;;;;2.22;2.00;;;9.60;99.90;;;;;;7376262;19;20320;-73
2022/05/16 02:52:13;;;;;;;4.50;1.87;;;9.60;99.90;;;;;;7369775;19;20802;-72
2022/05/16 02:54:39;;;;;;;2.28;2.08;;;9.50;99.90;;;;;;7371388;19;20328;-72
2022/05/16 02:57:04;;;;;;;2.30;2.10;;;9.50;99.90;;;;;;7375365;19;20338;-75
2022/05/16 02:59:33;;;;;;;1.77;1.67;;;9.50;99.90;;;;;;7374442;19;21199;-72
2022/05/16 03:02:03;;;;;;;2.10;1.90;;;9.50;99.90;;;;;;7367089;19;20889;-72
2022/05/16 03:04:29;;;;;;;2.42;2.22;;;9.40;99.90;;;;;;7373501;19;20356;-73
2022/05/16 03:06:55;;;;;;;2.07;1.80;;;9.40;99.90;;;;;;7371549;19;20356;-73
2022/05/16 03:09:21;;;;;;;3.30;2.03;;;9.30;99.90;;;;;;7347558;19;20454;-73
2022/05/16 03:11:47;;;;;;;1.80;1.70;;;9.30;99.90;;;;;;7358801;19;20336;-73
2022/05/16 03:14:12;;;;;;;2.15;1.92;;;9.30;99.90;;;;;;7369856;19;20893;-73
2022/05/16 03:16:38;;;;;;;2.10;1.90;;;9.30;99.90;;;;;;7372082;19;20317;-72
2022/05/16 03:19:04;;;;;;;4.20;2.35;;;9.30;99.90;;;;;;7375185;19;20325;-72
2022/05/16 03:21:30;;;;;;;2.08;1.95;;;9.30;99.90;;;;;;7366715;19;20372;-72
2022/05/16 03:23:56;;;;;;;3.10;2.27;;;9.40;99.90;;;;;;7369838;19;20909;-74
2022/05/16 03:26:22;;;;;;;2.47;2.07;;;9.30;99.90;;;;;;7371911;19;20347;-73
2022/05/16 03:28:48;;;;;;;2.83;2.63;;;9.30;99.90;;;;;;7373438;19;20332;-73
2022/05/16 03:31:14;;;;;;;2.67;2.17;;;9.30;99.90;;;;;;7370353;19;21137;-73
2022/05/16 03:33:39;;;;;;;3.60;2.43;;;9.20;99.90;;;;;;7371874;19;20316;-73
2022/05/16 03:36:05;;;;;;;2.60;2.30;;;9.20;99.90;;;;;;7369967;19;20335;-72
2022/05/16 03:41:15;;;;;;;3.47;2.70;;;9.20;99.90;;;;;;7262610;19;2004295;-72
2022/05/16 03:43:41;;;;;;;2.83;2.33;;;9.20;99.90;;;;;;7372178;19;20317;-76
2022/05/16 03:46:07;;;;;;;2.77;2.13;;;9.10;99.90;;;;;;7369121;19;20329;-73
2022/05/16 03:48:33;;;;;;;2.75;2.20;;;9.10;99.90;;;;;;7375881;19;20317;-74
2022/05/16 03:50:58;;;;;;;2.63;2.42;;;9.10;99.90;;;;;;7369297;19;20328;-72
2022/05/16 03:53:24;;;;;;;2.25;2.05;;;9.10;99.90;;;;;;7371026;19;20341;-73
2022/05/16 03:55:50;;;;;;;2.40;2.20;;;9.00;99.90;;;;;;7370394;19;20347;-73
2022/05/16 03:58:15;;;;;;;4.50;2.40;;;9.00;99.90;;;;;;7371914;19;20371;-72
2022/05/16 04:00:41;;;;;;;2.53;2.10;;;9.00;99.90;;;;;;7368498;19;20344;-72
2022/05/16 04:03:07;;;;;;;3.13;2.47;;;9.10;99.90;;;;;;7371195;19;20422;-73
2022/05/16 04:05:33;;;;;;;2.50;2.30;;;9.10;99.90;;;;;;7370367;19;20339;-72
2022/05/16 04:07:58;;;;;;;2.45;1.92;;;9.10;99.90;;;;;;7374011;19;20365;-72
2022/05/16 04:10:24;;;;;;;2.57;2.37;;;9.10;99.90;;;;;;7371167;19;20324;-74
2022/05/16 04:12:50;;;;;;;2.58;1.80;;;9.20;99.90;;;;;;7367474;19;20901;-73
2022/05/16 04:15:15;;;;;;;2.97;2.43;;;9.20;99.90;;;;;;7370059;19;20395;-71
2022/05/16 04:17:41;;;;;;;4.13;2.45;;;9.30;99.90;;;;;;7372240;19;20338;-73
2022/05/16 04:20:07;;;;;;;2.50;2.17;;;9.30;99.90;;;;;;7370397;19;20724;-72
2022/05/16 04:22:33;;;;;;;3.10;2.80;;;9.40;99.90;;;;;;7369675;19;20304;-73
2022/05/16 04:24:59;;;;;;;4.70;2.60;;;9.50;99.90;;;;;;7370606;19;20316;-72
2022/05/16 04:27:24;;;;;;;2.47;2.28;;;9.50;99.90;;;;;;7372432;19;20352;-72
2022/05/16 04:29:50;;;;;;;3.43;2.43;;;9.60;99.90;;;;;;7372076;19;20329;-73
2022/05/16 04:32:16;;;;;;;2.30;2.10;;;9.70;99.90;;;;;;7365112;19;20369;-75
2022/05/16 04:34:41;;;;;;;2.40;2.20;;;9.90;99.90;;;;;;7370925;19;20324;-73
2022/05/16 04:37:07;;;;;;;3.67;2.88;;;9.90;99.90;;;;;;7371003;19;20338;-74
2022/05/16 04:39:32;;;;;;;4.27;2.50;;;10.00;99.90;;;;;;7373535;19;20701;-75
2022/05/16 04:44:42;;;;;;;3.28;2.33;;;10.20;99.90;;;;;;7267557;19;2004282;-73
2022/05/16 04:47:08;;;;;;;2.90;2.60;;;10.40;99.90;;;;;;7370704;19;20313;-74
2022/05/16 04:49:34;;;;;;;2.50;2.30;;;10.50;99.90;;;;;;7373481;19;20333;-73
2022/05/16 04:51:59;;;;;;;2.83;2.30;;;10.60;99.90;;;;;;7364744;19;20361;-73
2022/05/16 04:54:25;;;;;;;5.45;2.63;;;10.70;99.90;;;;;;7374737;19;20336;-73
2022/05/16 04:56:51;;;;;;;2.90;2.42;;;10.90;99.90;;;;;;7377943;19;20354;-74
2022/05/16 04:59:17;;;;;;;5.07;2.60;;;11.00;99.90;;;;;;7377278;19;20845;-75
2022/05/16 05:01:43;;;;;;;3.05;2.25;;;11.20;99.90;;;;;;7371547;19;20700;-73
2022/05/16 05:04:09;;;;;;;2.50;2.30;;;11.30;99.90;;;;;;7374539;19;20336;-76
2022/05/16 05:06:34;;;;;;;2.75;2.38;;;11.50;99.90;;;;;;7373952;19;20340;-72
2022/05/16 05:09:00;;;;;;;3.30;2.63;;;11.60;99.90;;;;;;7368158;19;20589;-73
2022/05/16 05:16:54;;;;;;;2.83;2.53;;;11.90;99.90;;;;;;7370649;19;20328;-75
2022/05/16 05:19:19;;;;;;;3.77;2.60;;;12.10;99.90;;;;;;7372936;19;20328;-73
2022/05/16 05:21:45;;;;;;;3.03;2.63;;;12.20;99.90;;;;;;7370644;19;20886;-73
2022/05/16 05:24:11;;;;;;;5.30;2.93;;;12.40;99.90;;;;;;7370505;19;20436;-73
2022/05/16 05:26:37;;;;;;;4.00;2.67;;;12.50;99.90;;;;;;7372974;19;20705;-72
2022/05/16 05:29:02;;;;;;;3.63;2.57;;;12.70;99.90;;;;;;7370402;19;20321;-73
2022/05/16 05:31:28;;;;;;;5.10;2.78;;;12.80;99.90;;;;;;7370229;19;20362;-74
2022/05/16 05:33:54;;;;;;;3.83;2.90;;;12.90;99.90;;;;;;7376468;19;21304;-73
2022/05/16 05:36:20;;;;;;;3.60;2.63;;;13.00;99.90;;;;;;7365715;19;21025;-73
2022/05/16 05:38:50;;;;;;;2.72;2.40;;;13.20;99.90;;;;;;7371850;19;20343;-72
2022/05/16 05:41:16;;;;;;;6.47;3.03;;;13.30;99.90;;;;;;7372471;19;20349;-71
2022/05/16 05:43:41;;;;;;;2.90;2.40;;;13.40;99.90;;;;;;7371932;19;20337;-72
2022/05/16 05:46:07;;;;;;;4.03;2.77;;;13.50;99.90;;;;;;7371336;19;21200;-72
2022/05/16 05:48:32;;;;;;;4.67;2.80;;;13.70;99.90;;;;;;7375068;19;20365;-72
2022/05/16 05:50:58;;;;;;;2.63;2.33;;;13.90;99.90;;;;;;7371153;19;20331;-73
2022/05/16 05:53:24;;;;;;;3.07;2.53;;;14.00;99.90;;;;;;7374769;19;20320;-73
2022/05/16 05:55:50;;;;;;;3.17;2.65;;;14.10;99.90;;;;;;7372884;19;20335;-72
2022/05/16 05:58:16;;;;;;;2.60;2.40;;;14.30;99.90;;;;;;7374488;19;20351;-74
2022/05/16 06:00:42;;;;;;;2.70;2.50;;;14.30;99.90;;;;;;7371737;19;21192;-72
2022/05/16 06:03:07;;;;;;;3.10;2.47;;;14.50;99.90;;;;;;7376333;19;20908;-73
2022/05/16 06:05:34;;;;;;;2.60;2.40;;;14.60;99.90;;;;;;7376794;19;20335;-72
2022/05/16 06:07:59;;;;;;;2.83;2.30;;;14.80;99.90;;;;;;7372470;19;20757;-72
2022/05/16 06:10:25;;;;;;;3.13;2.50;;;14.90;99.90;;;;;;7374207;19;20826;-72
2022/05/16 06:12:50;;;;;;;3.50;2.30;;;15.20;99.90;;;;;;7374722;19;20313;-72
2022/05/16 06:15:16;;;;;;;3.53;2.53;;;15.30;99.90;;;;;;7376697;19;20343;-72
2022/05/16 06:17:43;;;;;;;4.17;2.40;;;15.50;99.90;;;;;;7374819;19;20369;-72
2022/05/16 06:20:10;;;;;;;3.00;2.23;;;15.70;99.90;;;;;;7373051;19;20328;-73
2022/05/16 06:22:36;;;;;;;3.58;2.60;;;15.80;99.90;;;;;;7375403;19;20328;-73
2022/05/16 06:27:50;;;;;;;2.67;2.15;;;15.80;99.90;;;;;;7269178;19;2004354;-72
2022/05/16 06:30:19;;;;;;;2.90;2.25;;;16.00;99.90;;;;;;7372284;19;20345;-72
2022/05/16 06:32:47;;;;;;;3.45;2.47;;;16.20;99.90;;;;;;7373958;19;21317;-72
2022/05/16 06:35:13;;;;;;;3.65;2.50;;;16.40;99.90;;;;;;7376517;19;20300;-73
2022/05/16 06:37:38;;;;;;;3.38;2.15;;;16.50;99.90;;;;;;7373157;19;20889;-72
2022/05/16 06:40:05;;;;;;;3.13;2.23;;;16.70;99.90;;;;;;7372147;19;21364;-72
2022/05/16 06:42:30;;;;;;;2.95;2.42;;;16.80;99.90;;;;;;7372931;19;20882;-72
2022/05/16 06:44:56;;;;;;;4.45;2.30;;;17.00;99.90;;;;;;7375469;19;20344;-75
2022/05/16 06:47:21;;;;;;;4.07;2.67;;;17.10;99.90;;;;;;7375111;19;20321;-75
2022/05/16 06:49:47;;;;;;;3.70;2.50;;;17.30;99.90;;;;;;7367657;19;20328;-75
2022/05/16 06:52:13;;;;;;;1.98;1.80;;;17.40;99.90;;;;;;7373769;19;21029;-75
2022/05/16 06:54:38;;;;;;;3.70;2.20;;;17.70;99.90;;;;;;7370454;19;20331;-76
2022/05/16 06:57:04;;;;;;;5.27;2.50;;;17.80;99.90;;;;;;7372737;19;20430;-75
2022/05/16 06:59:30;;;;;;;2.40;2.10;;;17.80;99.90;;;;;;7371502;19;20333;-75
2022/05/16 07:01:56;;;;;;;4.95;2.08;;;17.90;99.90;;;;;;7370533;19;20337;-78
2022/05/16 07:04:21;;;;;;;3.73;2.17;;;18.00;99.90;;;;;;7376168;19;20336;-78
2022/05/16 07:06:47;;;;;;;3.83;2.33;;;18.10;99.90;;;;;;7375152;19;20316;-76
2022/05/16 07:09:13;;;;;;;2.23;2.03;;;18.10;99.90;;;;;;7369122;19;20349;-76
2022/05/16 07:11:38;;;;;;;3.88;2.20;;;18.20;99.90;;;;;;7369815;19;20376;-76
2022/05/16 07:14:04;;;;;;;3.97;2.15;;;18.40;99.90;;;;;;7368520;19;20881;-76
2022/05/16 07:16:29;;;;;;;2.70;2.17;;;18.60;99.90;;;;;;7368096;19;20332;-76
2022/05/16 07:18:55;;;;;;;4.07;2.20;;;18.80;99.90;;;;;;7370860;19;20340;-76
2022/05/16 07:21:20;;;;;;;2.53;2.20;;;18.90;99.90;;;;;;7371674;19;20341;-76
2022/05/16 07:23:46;;;;;;;2.97;2.30;;;19.10;99.90;;;;;;7372252;19;20334;-76
2022/05/16 07:28:56;;;;;;;2.63;2.20;;;19.40;99.90;;;;;;7371053;19;20348;-76
2022/05/16 07:31:22;;;;;;;3.17;2.40;;;19.50;99.90;;;;;;7367170;19;20359;-76
2022/05/16 07:33:47;;;;;;;3.88;2.53;;;19.80;99.90;;;;;;7367424;19;20676;-76
2022/05/16 07:36:13;;;;;;;3.87;2.17;;;19.80;99.90;;;;;;7365311;19;20432;-76
2022/05/16 07:38:39;;;;;;;3.50;2.20;;;20.00;99.90;;;;;;7369230;19;20327;-76
2022/05/16 07:41:04;;;;;;;2.38;2.03;;;20.30;99.90;;;;;;7360342;19;20423;-76
2022/05/16 07:43:30;;;;;;;2.10;1.90;;;20.60;99.90;;;;;;7368970;19;20390;-76
2022/05/16 07:45:56;;;;;;;4.18;2.30;;;20.80;99.90;;;;;;7363631;19;20328;-76
2022/05/16 07:48:21;;;;;;;3.50;2.33;;;20.90;99.90;;;;;;7367591;19;20331;-76
2022/05/16 07:50:48;;;;;;;2.63;2.03;;;21.00;99.90;;;;;;7365788;19;20328;-77
2022/05/16 07:53:14;;;;;;;3.23;2.20;;;21.10;99.70;;;;;;7365390;19;20728;-76
2022/05/16 07:55:45;;;;;;;3.70;2.33;;;21.10;99.50;;;;;;7364837;19;20352;-76
2022/05/16 07:58:11;;;;;;;3.00;1.90;;;21.40;99.10;;;;;;7366318;19;20373;-78
2022/05/16 08:00:37;;;;;;;2.20;2.00;;;21.80;99.80;;;;;;7370767;19;20707;-78
2022/05/16 08:03:04;;;;;;;3.92;2.30;;;22.00;99.30;;;;;;7371190;19;20362;-77
2022/05/16 08:05:29;;;;;;;3.67;2.28;;;22.20;97.80;;;;;;7365009;19;20360;-77
2022/05/16 08:10:39;;;;;;;3.67;1.98;;;22.40;96.00;;;;;;7264466;19;2004261;-76
2022/05/16 08:13:08;;;;;;;4.55;2.10;;;22.30;95.80;;;;;;7366325;19;21730;-77
2022/05/16 08:15:34;;;;;;;2.17;1.98;;;22.50;95.40;;;;;;7365980;19;20353;-77
2022/05/16 08:18:02;;;;;;;3.08;2.20;;;22.60;94.80;;;;;;7366519;19;20923;-77
2022/05/16 08:20:28;;;;;;;2.58;2.03;;;22.80;95.40;;;;;;7373948;19;20359;-77
2022/05/16 08:22:54;;;;;;;6.03;2.00;;;23.20;94.30;;;;;;7372441;19;20341;-77
2022/05/16 08:25:19;;;;;;;3.20;2.27;;;23.40;94.50;;;;;;7368199;19;20341;-78
2022/05/16 08:27:45;;;;;;;2.72;2.10;;;23.70;93.80;;;;;;7374385;19;20865;-80
2022/05/16 08:30:11;;;;;;;2.00;1.80;;;23.70;92.00;;;;;;7374545;19;20417;-78
2022/05/16 08:32:37;;;;;;;2.07;1.80;;;23.70;92.20;;;;;;7375468;19;20352;-78
2022/05/16 08:35:05;;;;;;;4.57;1.97;;;24.10;92.90;;;;;;7369394;19;20328;-78
2022/05/16 08:40:15;;;;;;;2.07;1.80;;;24.40;91.00;;;;;;7377527;19;20340;-78
2022/05/16 08:42:56;;;;;;;2.85;1.60;;;24.40;88.50;;;;;;7372208;19;20355;-78
2022/05/16 08:45:29;;;;;;;1.77;1.60;;;24.50;87.30;;;;;;7380140;19;20781;-79
2022/05/16 08:47:58;;;;;;;2.70;1.60;;;24.80;86.20;;;;;;7390741;19;20332;-79
2022/05/16 08:50:41;;;;;;;1.67;1.58;;;25.00;86.10;;;;;;7376746;19;20309;-79
2022/05/16 08:53:18;;;;;;;2.63;1.87;;;25.50;84.60;;;;;;7278178;19;2004340;-79
2022/05/16 08:55:48;;;;;;;5.55;1.80;;;25.60;84.20;;;;;;7383005;19;20336;-79
2022/05/16 08:58:23;;;;;;;4.05;1.92;;;25.70;79.90;;;;;;7388108;19;20316;-78
2022/05/16 09:03:39;;;;;;;3.35;1.50;;;26.00;80.50;;;;;;7387842;19;20350;-76
2022/05/16 09:06:16;;;;;;;1.52;1.42;;;26.20;80.30;;;;;;7388591;19;20774;-77
2022/05/16 09:09:09;;;;;;;1.53;1.43;;;26.20;76.90;;;;;;7386493;19;20320;-76
2022/05/16 09:11:47;;;;;;;4.10;1.48;;;26.20;76.40;;;;;;7279285;19;2004278;-79
2022/05/16 09:14:31;;;;;;;2.38;1.60;;;26.50;72.20;;;;;;7380875;19;20361;-79
2022/05/16 09:17:17;;;;;;;1.50;1.40;;;26.70;73.50;;;;;;7388176;19;20445;-80
2022/05/16 09:19:51;;;;;;;1.88;1.45;;;26.70;70.20;;;;;;7389308;19;20801;-79
2022/05/16 09:22:29;;;;;;;1.65;1.52;;;26.60;67.00;;;;;;7392452;19;20673;-80
2022/05/16 09:25:09;;;;;;;3.03;1.52;;;26.60;67.50;;;;;;7392235;19;20325;-81
2022/05/16 09:30:27;;;;;;;1.30;1.20;;;27.10;68.00;;;;;;7287704;19;2004371;-81
2022/05/16 09:32:59;;;;;;;1.40;1.30;;;27.40;67.40;;;;;;7288786;19;2020257;-77
2022/05/16 09:35:36;;;;;;;1.35;1.20;;;27.60;65.80;;;;;;7384736;19;20352;-80
2022/05/16 09:38:02;;;;;;;2.07;1.40;;;27.60;66.00;;;;;;7389343;19;20937;-79
2022/05/16 09:40:40;;;;;;;1.25;1.15;;;27.90;63.80;;;;;;7383782;19;20361;-80
2022/05/16 09:43:20;;;;;;;2.45;1.35;;;28.30;61.20;;;;;;7392690;19;20332;-79
2022/05/16 09:45:49;;;;;;;1.98;1.30;;;28.10;59.50;;;;;;7383173;19;20430;-77
2022/05/16 09:48:20;;;;;;;1.25;1.15;;;28.30;59.40;;;;;;7382131;19;20309;-76
2022/05/16 09:51:04;;;;;;;1.98;1.60;;;28.50;61.40;;;;;;7383818;19;20315;-76
2022/05/16 09:53:32;;;;;;;1.48;1.38;;;29.00;59.60;;;;;;7284078;19;2004967;-77
2022/05/16 09:56:03;;;;;;;2.47;1.52;;;28.40;57.40;;;;;;7382430;19;20365;-77
2022/05/16 09:58:48;;;;;;;1.93;1.53;;;28.90;58.90;;;;;;7387402;19;20324;-75
2022/05/16 10:01:27;;;;;;;2.20;1.35;;;28.90;57.30;;;;;;7277706;19;2004433;-76
2022/05/16 10:03:52;;;;;;;1.90;1.50;;;28.70;56.50;;;;;;7278084;19;2004382;-76
2022/05/16 10:06:32;;;;;;;6.20;2.00;;;28.60;56.50;;;;;;7378212;19;20328;-77
2022/05/16 10:09:14;;;;;;;2.87;1.80;;;28.50;52.80;;;;;;7380976;19;20405;-77
2022/05/16 10:14:19;;;;;;;1.27;1.20;;;29.00;56.90;;;;;;7387059;19;20309;-79
2022/05/16 10:16:47;;;;;;;2.20;1.57;;;29.20;55.90;;;;;;7391839;19;20328;-76
2022/05/16 10:19:24;;;;;;;1.70;1.60;;;29.80;56.10;;;;;;7391019;19;20359;-77
2022/05/16 10:22:03;;;;;;;4.15;1.40;;;29.60;54.00;;;;;;7385972;19;20308;-78
2022/05/16 10:24:33;;;;;;;4.57;1.55;;;29.80;55.10;;;;;;7383232;19;21161;-77
2022/05/16 10:27:04;;;;;;;2.17;1.30;;;29.60;51.80;;;;;;7384863;19;20831;-77
2022/05/16 10:29:31;;;;;;;1.60;1.30;;;30.00;54.40;;;;;;7383245;19;20407;-77
2022/05/16 10:34:51;;;;;;;1.65;1.35;;;30.60;53.60;;;;;;7380578;19;20329;-77
2022/05/16 10:37:16;;;;;;;2.10;1.33;;;30.40;53.10;;;;;;7387949;19;20327;-77
2022/05/16 10:40:23;;;;;;;1.53;1.30;;;31.00;55.10;;;;;;7388620;19;20354;-77
2022/05/16 10:42:56;;;;;;;3.95;1.50;;;31.40;52.60;;;;;;7289163;19;2004364;-77
2022/05/16 10:45:24;;;;;;;1.85;1.25;;;31.40;48.80;;;;;;7390619;19;20329;-80
2022/05/16 10:47:57;;;;;;;1.67;1.50;;;31.50;50.60;;;;;;7391053;19;20321;-79
2022/05/16 10:50:38;;;;;;;1.48;1.30;;;31.20;50.20;;;;;;7380095;19;20394;-78
2022/05/16 10:53:10;;;;;;;1.88;1.45;;;31.40;49.70;;;;;;7377972;19;20383;-77
2022/05/16 10:56:13;;;;;;;1.10;1.10;;;32.00;48.20;;;;;;7379206;19;20340;-76
2022/05/16 10:58:55;;;;;;;1.23;1.05;;;32.60;47.70;;;;;;7284445;19;2004726;-77
2022/05/16 11:01:25;;;;;;;2.85;1.10;;;32.90;48.60;;;;;;7379475;19;20345;-78
2022/05/16 11:04:18;;;;;;;1.27;1.10;;;33.20;49.90;;;;;;7389559;19;20325;-78
2022/05/16 11:06:46;;;;;;;3.00;1.52;;;33.30;45.60;;;;;;7384430;19;20324;-77
2022/05/16 11:09:19;;;;;;;3.08;1.80;;;33.40;46.60;;;;;;7384759;19;20337;-78
2022/05/16 11:11:57;;;;;;;1.33;1.23;;;32.90;44.10;;;;;;7382819;19;20309;-77
2022/05/16 11:14:47;;;;;;;1.50;1.40;;;32.80;45.70;;;;;;7388446;19;20309;-76
2022/05/16 11:17:37;;;;;;;1.53;1.30;;;32.60;45.00;;;;;;7385962;19;20894;-77
2022/05/16 11:20:15;;;;;;;1.63;1.48;;;32.80;44.80;;;;;;7284188;19;2018873;-77
2022/05/16 11:22:42;;;;;;;1.15;1.08;;;32.50;43.80;;;;;;7285386;19;2004548;-77
2022/05/16 11:25:26;;;;;;;2.83;1.30;;;32.40;43.50;;;;;;7384329;19;20349;-78
2022/05/16 11:28:06;;;;;;;1.30;1.20;;;32.50;45.00;;;;;;7278011;19;2020007;-77
2022/05/16 11:30:46;;;;;;;1.90;1.30;;;33.00;45.10;;;;;;7277897;19;2019986;-78
2022/05/16 11:33:20;;;;;;;2.55;1.45;;;33.00;43.30;;;;;;7284058;19;2004961;-78
2022/05/16 11:38:33;;;;;;;3.07;1.60;;;33.10;41.50;;;;;;7384407;19;20357;-76
2022/05/16 11:41:30;;;;;;;3.78;1.40;;;33.40;42.10;;;;;;7281988;19;2004453;-76
2022/05/16 11:44:23;;;;;;;3.10;1.23;;;32.70;41.20;;;;;;7285156;19;2004376;-79
2022/05/16 11:49:26;;;;;;;1.27;1.17;;;32.90;42.40;;;;;;7370651;19;20359;-76
2022/05/16 11:52:16;;;;;;;1.73;1.30;;;33.30;42.00;;;;;;7365804;19;20320;-76
2022/05/16 11:54:48;;;;;;;1.73;1.33;;;33.70;40.30;;;;;;7270425;19;2004693;-76
2022/05/16 12:02:47;;;;;;;1.95;1.20;;;32.40;43.00;;;;;;7164347;19;2006212;-77
2022/05/16 12:05:30;;;;;;;2.08;1.30;;;33.20;45.70;;;;;;7374437;19;20345;-77
2022/05/16 12:08:20;;;;;;;1.80;1.40;;;33.90;41.10;;;;;;7265921;19;2004324;-77
2022/05/16 12:11:04;;;;;;;2.42;1.50;;;34.40;41.00;;;;;;7369781;19;20328;-75
2022/05/16 12:13:39;;;;;;;1.45;1.30;;;34.40;41.10;;;;;;7270275;19;2026985;-77
2022/05/16 12:16:16;;;;;;;1.90;1.50;;;34.40;38.80;;;;;;7367759;19;20987;-76
2022/05/16 12:18:49;;;;;;;1.95;1.35;;;34.60;41.60;;;;;;7372332;19;20324;-77
2022/05/16 12:21:18;;;;;;;4.70;1.80;;;34.30;37.90;;;;;;7367690;19;20884;-77
2022/05/16 12:23:49;;;;;;;1.38;1.20;;;34.30;37.90;;;;;;7372931;19;20358;-77
2022/05/16 12:26:26;;;;;;;1.60;1.33;;;33.80;38.60;;;;;;7374874;19;20344;-77
2022/05/16 12:29:08;;;;;;;2.50;1.48;;;34.50;40.30;;;;;;7271871;19;2004571;-77
2022/05/16 12:31:41;;;;;;;4.60;1.50;;;34.60;40.60;;;;;;7366116;19;20330;-76
2022/05/16 12:34:06;;;;;;;16.20;1.60;;;34.40;37.30;;;;;;7370373;19;21013;-76
2022/05/16 12:36:34;;;;;;;2.60;1.35;;;34.30;35.40;;;;;;7372473;19;20950;-77
2022/05/16 12:39:06;;;;;;;3.97;1.63;;;34.50;37.10;;;;;;7372437;19;20324;-77
2022/05/16 12:41:51;;;;;;;1.67;1.50;;;34.90;37.20;;;;;;7369799;19;20335;-76
2022/05/16 12:44:31;;;;;;;2.80;1.40;;;34.70;37.70;;;;;;7372745;19;20352;-77
2022/05/16 12:47:15;;;;;;;2.25;1.38;;;33.50;35.10;;;;;;7367341;19;20324;-77
2022/05/16 12:49:53;;;;;;;1.67;1.40;;;31.70;35.30;;;;;;7373905;19;20353;-77
2022/05/16 12:52:46;;;;;;;2.38;1.45;;;32.40;36.80;;;;;;7375173;19;20947;-77
2022/05/16 12:55:39;;;;;;;1.40;1.30;;;32.60;40.00;;;;;;7269625;19;2004374;-76
2022/05/16 12:58:14;;;;;;;2.47;1.50;;;33.70;40.20;;;;;;7367825;19;20336;-76
2022/05/16 13:00:50;;;;;;;1.75;1.40;;;34.40;37.20;;;;;;7369362;19;20333;-76
2022/05/16 13:03:22;;;;;;;2.20;1.40;;;34.40;36.70;;;;;;7371068;19;20344;-77
2022/05/16 13:06:04;;;;;;;1.45;1.30;;;35.20;37.30;;;;;;7365476;19;20308;-75
2022/05/16 13:08:50;;;;;;;1.63;1.33;;;35.80;36.40;;;;;;7373048;19;20376;-78
2022/05/16 13:11:33;;;;;;;1.83;1.50;;;36.10;36.60;;;;;;7367861;19;20305;-77
2022/05/16 13:14:17;;;;;;;2.75;1.58;;;35.30;33.60;;;;;;7270443;19;2004497;-76
2022/05/16 13:16:56;;;;;;;1.70;1.23;;;35.00;34.50;;;;;;7272803;19;2004335;-76
2022/05/16 13:19:28;;;;;;;5.43;1.17;;;34.10;35.50;;;;;;7377207;19;20340;-75
2022/05/16 13:21:54;;;;;;;1.30;1.20;;;33.90;34.80;;;;;;7374518;19;20314;-76
2022/05/16 13:24:21;;;;;;;3.40;1.50;;;34.80;37.40;;;;;;7376135;19;20362;-76
2022/05/16 13:29:35;;;;;;;2.20;1.50;;;35.70;33.30;;;;;;7378236;19;20359;-76
2022/05/16 13:32:11;;;;;;;1.50;1.40;;;34.80;36.10;;;;;;7374991;19;20327;-77
2022/05/16 13:34:58;;;;;;;1.87;1.30;;;36.00;37.40;;;;;;7378336;19;20369;-77
2022/05/16 13:37:26;;;;;;;2.00;1.60;;;37.10;36.90;;;;;;7378521;19;20356;-77
2022/05/16 13:40:01;;;;;;;1.73;1.50;;;37.50;34.00;;;;;;7379426;19;20344;-75
2022/05/16 13:42:28;;;;;;;1.30;1.20;;;36.20;33.80;;;;;;7381305;19;20424;-76
2022/05/16 13:44:57;;;;;;;1.90;1.40;;;36.20;35.30;;;;;;7378134;19;20316;-75
2022/05/16 13:47:24;;;;;;;1.50;1.25;;;37.00;34.40;;;;;;7376801;19;20344;-75
2022/05/16 13:49:49;;;;;;;5.00;1.45;;;37.20;33.20;;;;;;7377166;19;20983;-77
2022/05/16 13:52:27;;;;;;;1.50;1.40;;;36.40;33.20;;;;;;7377511;19;20412;-78
2022/05/16 13:54:58;;;;;;;1.60;1.50;;;36.70;35.20;;;;;;7276165;19;2004487;-76